createdAt,value
2018-09-15T00:00:03.021Z,4.27
2018-09-15T00:02:32.080Z,3.93
2018-09-15T00:05:00.987Z,3.93
2018-09-15T00:07:30.265Z,4.47
2018-09-15T00:09:59.446Z,4.63
2018-09-15T00:12:27.952Z,4.20
2018-09-15T00:14:57.002Z,3.90
2018-09-15T00:17:25.840Z,4.27
2018-09-15T00:19:54.475Z,3.93
2018-09-15T00:22:26.544Z,3.80
2018-09-15T00:24:56.273Z,3.63
2018-09-15T00:27:29.387Z,4.67
2018-09-15T00:29:58.305Z,4.77
2018-09-15T00:32:31.444Z,4.30
2018-09-15T00:35:00.372Z,5.07
2018-09-15T00:37:41.554Z,4.63
2018-09-15T00:40:10.296Z,4.47
2018-09-15T00:42:38.783Z,4.40
2018-09-15T00:45:07.691Z,4.17
2018-09-15T00:47:39.827Z,3.90
2018-09-15T00:50:08.744Z,3.50
2018-09-15T00:52:44.317Z,4.27
2018-09-15T00:55:13.548Z,3.80
2018-09-15T00:57:46.316Z,3.47
2018-09-15T01:00:14.840Z,4.20
2018-09-15T01:02:48.445Z,4.50
2018-09-15T01:05:17.551Z,3.80
2018-09-15T01:07:53.815Z,3.93
2018-09-15T01:10:22.979Z,4.13
2018-09-15T01:12:55.387Z,4.20
2018-09-15T01:15:24.120Z,3.97
2018-09-15T01:17:56.843Z,4.07
2018-09-15T01:20:25.380Z,4.30
2018-09-15T01:22:58.324Z,3.53
2018-09-15T01:25:27.090Z,4.00
2018-09-15T01:28:00.192Z,3.77
2018-09-15T01:30:28.683Z,3.70
2018-09-15T01:32:57.575Z,3.77
2018-09-15T01:35:26.486Z,3.37
2018-09-15T01:37:54.999Z,2.87
2018-09-15T01:40:23.483Z,3.67
2018-09-15T01:42:52.411Z,2.97
2018-09-15T01:45:21.649Z,2.70
2018-09-15T01:47:50.542Z,3.00
2018-09-15T01:50:19.449Z,2.77
2018-09-15T01:52:48.631Z,2.80
2018-09-15T01:55:17.473Z,3.30
2018-09-15T01:57:46.387Z,3.57
2018-09-15T02:00:19.540Z,3.87
2018-09-15T02:02:47.984Z,3.43
2018-09-15T02:05:21.511Z,2.90
2018-09-15T02:07:50.679Z,3.50
2018-09-15T02:10:23.748Z,3.10
2018-09-15T02:12:52.613Z,3.30
2018-09-15T02:15:26.670Z,3.30
2018-09-15T02:17:55.583Z,3.60
2018-09-15T02:20:29.361Z,2.80
2018-09-15T02:22:58.254Z,3.13
2018-09-15T02:25:32.069Z,3.10
2018-09-15T02:28:00.787Z,2.67
2018-09-15T02:30:38.065Z,2.90
2018-09-15T02:33:07.007Z,2.70
2018-09-15T02:35:39.208Z,2.03
2018-09-15T02:38:07.655Z,2.40
2018-09-15T02:40:41.338Z,2.27
2018-09-15T02:43:09.807Z,2.60
2018-09-15T02:45:44.572Z,2.30
2018-09-15T02:48:13.304Z,2.57
2018-09-15T02:50:54.951Z,2.53
2018-09-15T02:53:23.851Z,2.20
2018-09-15T02:55:53.027Z,2.50
2018-09-15T02:58:21.483Z,2.90
2018-09-15T03:00:54.319Z,2.13
2018-09-15T03:03:23.495Z,2.53
2018-09-15T03:05:55.900Z,2.27
2018-09-15T03:08:25.239Z,2.00
2018-09-15T03:10:58.404Z,2.20
2018-09-15T03:13:26.883Z,2.43
2018-09-15T03:15:59.950Z,2.27
2018-09-15T03:18:29.099Z,2.17
2018-09-15T03:21:01.818Z,2.37
2018-09-15T03:23:30.717Z,2.10
2018-09-15T03:28:33.395Z,2.57
2018-09-15T03:31:02.286Z,2.47
2018-09-15T03:33:31.236Z,2.10
2018-09-15T03:35:59.690Z,2.83
2018-09-15T03:38:28.589Z,2.13
2018-09-15T03:40:57.043Z,2.77
2018-09-15T03:43:25.972Z,2.40
2018-09-15T03:45:55.143Z,2.73
2018-09-15T03:48:24.172Z,2.30
2018-09-15T03:50:53.063Z,2.23
2018-09-15T03:53:22.922Z,2.53
2018-09-15T03:55:51.805Z,2.63
2018-09-15T03:58:25.858Z,2.83
2018-09-15T04:00:55.013Z,2.60
2018-09-15T04:03:36.266Z,2.53
2018-09-15T04:06:05.471Z,2.53
2018-09-15T04:08:34.436Z,2.50
2018-09-15T04:11:02.893Z,3.00
2018-09-15T04:13:33.939Z,2.53
2018-09-15T04:16:02.847Z,2.53
2018-09-15T04:18:39.744Z,2.50
2018-09-15T04:21:08.981Z,2.80
2018-09-15T04:23:39.639Z,3.00
2018-09-15T04:26:08.624Z,2.80
2018-09-15T04:28:49.994Z,2.60
2018-09-15T04:31:18.908Z,2.80
2018-09-15T04:33:48.177Z,2.60
2018-09-15T04:36:17.073Z,3.20
2018-09-15T04:38:47.043Z,2.40
2018-09-15T04:41:15.763Z,3.03
2018-09-15T04:43:49.253Z,2.73
2018-09-15T04:46:17.750Z,2.50
2018-09-15T04:48:52.548Z,3.23
2018-09-15T04:51:21.531Z,2.87
2018-09-15T04:53:59.036Z,3.13
2018-09-15T04:56:28.111Z,2.70
2018-09-15T04:58:59.304Z,3.07
2018-09-15T05:01:28.216Z,3.30
2018-09-15T05:04:01.948Z,2.90
2018-09-15T05:06:31.181Z,3.20
2018-09-15T05:09:05.368Z,3.90
2018-09-15T05:11:34.299Z,2.90
2018-09-15T05:14:08.956Z,3.13
2018-09-15T05:16:37.522Z,3.47
2018-09-15T05:19:10.741Z,3.20
2018-09-15T05:21:39.925Z,3.67
2018-09-15T05:24:13.538Z,3.10
2018-09-15T05:26:42.583Z,3.77
2018-09-15T05:29:15.858Z,3.30
2018-09-15T05:31:44.338Z,4.13
2018-09-15T05:36:46.828Z,3.93
2018-09-15T05:39:18.328Z,3.50
2018-09-15T05:41:49.773Z,3.97
2018-09-15T05:44:23.037Z,3.73
2018-09-15T05:46:51.507Z,3.87
2018-09-15T05:49:21.997Z,3.70
2018-09-15T05:51:54.007Z,3.83
2018-09-15T05:54:24.314Z,3.63
2018-09-15T05:56:55.766Z,4.70
2018-09-15T05:59:24.668Z,4.53
2018-09-15T06:01:53.637Z,4.30
2018-09-15T06:04:22.373Z,4.60
2018-09-15T06:06:51.316Z,4.50
2018-09-15T06:09:20.420Z,4.83
2018-09-15T06:11:49.199Z,4.57
2018-09-15T06:14:18.356Z,4.47
2018-09-15T06:16:46.863Z,4.77
2018-09-15T06:19:15.841Z,5.17
2018-09-15T06:21:46.423Z,5.30
2018-09-15T06:24:15.337Z,4.70
2018-09-15T06:26:49.466Z,3.77
2018-09-15T06:29:18.544Z,4.10
2018-09-15T06:31:51.805Z,5.27
2018-09-15T06:34:21.217Z,4.50
2018-09-15T06:36:54.608Z,3.80
2018-09-15T06:39:23.557Z,4.40
2018-09-15T06:41:58.459Z,3.57
2018-09-15T06:44:26.918Z,4.10
2018-09-15T06:47:00.213Z,3.90
2018-09-15T06:49:29.389Z,4.00
2018-09-15T06:52:11.932Z,4.23
2018-09-15T06:54:40.836Z,4.70
2018-09-15T06:57:09.755Z,3.67
2018-09-15T06:59:38.239Z,3.67
2018-09-15T07:02:11.729Z,3.77
2018-09-15T07:04:40.207Z,3.27
2018-09-15T07:07:28.226Z,3.20
2018-09-15T07:09:56.725Z,3.10
2018-09-15T07:12:25.616Z,4.30
2018-09-15T07:14:55.802Z,3.00
2018-09-15T07:17:24.721Z,2.70
2018-09-15T07:19:53.710Z,2.87
2018-09-15T07:22:22.954Z,3.20
2018-09-15T07:24:52.242Z,2.80
2018-09-15T07:27:21.778Z,4.13
2018-09-15T07:29:51.020Z,3.17
2018-09-15T07:32:24.763Z,3.50
2018-09-15T07:34:53.719Z,3.63
2018-09-15T07:37:27.835Z,3.53
2018-09-15T07:39:56.315Z,4.33
2018-09-15T07:42:37.896Z,4.47
2018-09-15T07:45:06.844Z,3.80
2018-09-15T07:47:36.220Z,3.60
2018-09-15T07:50:05.215Z,3.50
2018-09-15T07:52:34.726Z,3.67
2018-09-15T07:55:03.183Z,3.73
2018-09-15T07:57:36.773Z,3.43
2018-09-15T08:00:05.524Z,3.53
2018-09-15T08:02:39.725Z,4.27
2018-09-15T08:05:08.700Z,3.30
2018-09-15T08:07:42.197Z,3.57
2018-09-15T08:10:11.187Z,3.80
2018-09-15T08:12:45.368Z,3.30
2018-09-15T08:15:14.280Z,3.10
2018-09-15T08:17:47.379Z,3.13
2018-09-15T08:20:16.581Z,3.07
2018-09-15T08:22:50.061Z,3.77
2018-09-15T08:25:18.998Z,3.33
2018-09-15T08:27:55.352Z,3.53
2018-09-15T08:30:24.267Z,3.40
2018-09-15T08:33:05.685Z,3.10
2018-09-15T08:35:34.203Z,3.07
2018-09-15T08:38:03.635Z,3.50
2018-09-15T08:40:32.119Z,3.40
2018-09-15T08:43:02.339Z,3.27
2018-09-15T08:45:32.323Z,3.20
2018-09-15T08:48:06.336Z,2.70
2018-09-15T08:50:35.250Z,3.13
2018-09-15T08:53:11.453Z,3.00
2018-09-15T08:55:40.399Z,3.40
2018-09-15T08:58:12.887Z,3.43
2018-09-15T09:00:41.656Z,3.83
2018-09-15T09:03:22.343Z,2.73
2018-09-15T09:05:51.536Z,3.53
2018-09-15T09:08:20.455Z,3.47
2018-09-15T09:10:49.464Z,3.90
2018-09-15T09:13:20.205Z,3.67
2018-09-15T09:15:49.121Z,3.43
2018-09-15T09:18:30.827Z,3.53
2018-09-15T09:20:59.564Z,3.13
2018-09-15T09:23:28.576Z,3.93
2018-09-15T09:25:57.582Z,3.57
2018-09-15T09:28:27.444Z,3.53
2018-09-15T09:30:56.404Z,3.40
2018-09-15T09:33:37.875Z,3.70
2018-09-15T09:36:07.093Z,3.77
2018-09-15T09:38:36.108Z,3.37
2018-09-15T09:41:05.036Z,3.70
2018-09-15T09:46:11.388Z,3.13
2018-09-15T09:48:40.332Z,4.10
2018-09-15T09:51:09.107Z,3.37
2018-09-15T09:53:41.268Z,3.00
2018-09-15T09:56:09.799Z,3.50
2018-09-15T09:58:51.278Z,3.43
2018-09-15T10:01:28.523Z,3.50
2018-09-15T10:03:58.627Z,3.93
2018-09-15T10:06:27.599Z,3.40
2018-09-15T10:08:56.538Z,3.53
2018-09-15T10:11:25.806Z,2.87
2018-09-15T10:13:54.292Z,2.90
2018-09-15T10:16:23.327Z,3.53
2018-09-15T10:18:54.768Z,3.10
2018-09-15T10:21:23.740Z,3.80
2018-09-15T10:23:57.042Z,3.40
2018-09-15T10:26:26.271Z,3.50
2018-09-15T10:29:03.028Z,4.47
2018-09-15T10:31:31.895Z,3.80
2018-09-15T10:34:04.593Z,3.60
2018-09-15T10:36:33.539Z,2.90
2018-09-15T10:39:07.494Z,2.93
2018-09-15T10:41:36.055Z,3.00
2018-09-15T10:44:11.182Z,2.80
2018-09-15T10:46:40.438Z,2.63
2018-09-15T10:49:12.983Z,3.17
2018-09-15T10:51:41.441Z,3.07
2018-09-15T10:54:16.665Z,2.37
2018-09-15T10:56:45.717Z,3.03
2018-09-15T10:59:18.199Z,3.10
2018-09-15T11:01:46.939Z,3.00
2018-09-15T11:04:20.615Z,2.70
2018-09-15T11:06:49.547Z,2.27
2018-09-15T11:09:30.515Z,2.57
2018-09-15T11:11:59.525Z,2.60
2018-09-15T11:14:28.427Z,3.13
2018-09-15T11:16:57.732Z,2.00
2018-09-15T11:19:28.257Z,2.37
2018-09-15T11:21:56.816Z,2.30
2018-09-15T11:24:30.045Z,2.33
2018-09-15T11:26:59.024Z,2.30
2018-09-15T11:29:41.869Z,2.77
2018-09-15T11:32:10.772Z,2.33
2018-09-15T11:34:39.247Z,2.50
2018-09-15T11:37:07.984Z,2.03
2018-09-15T11:39:40.334Z,2.37
2018-09-15T11:42:09.248Z,2.70
2018-09-15T11:44:41.208Z,2.73
2018-09-15T11:47:10.157Z,2.03
2018-09-15T11:49:45.147Z,2.23
2018-09-15T11:52:13.642Z,1.80
2018-09-15T11:54:56.930Z,2.13
2018-09-15T11:57:26.515Z,1.77
2018-09-15T11:59:55.460Z,1.83
2018-09-15T12:02:30.851Z,2.33
2018-09-15T12:05:03.961Z,1.80
2018-09-15T12:07:32.479Z,1.73
2018-09-15T12:10:01.483Z,2.13
2018-09-15T12:12:30.444Z,2.17
2018-09-15T12:14:59.028Z,2.33
2018-09-15T12:17:28.207Z,2.30
2018-09-15T12:20:03.147Z,2.00
2018-09-15T12:22:32.068Z,1.77
2018-09-15T12:25:05.196Z,1.70
2018-09-15T12:27:34.151Z,2.17
2018-09-15T12:30:10.033Z,1.60
2018-09-15T12:32:38.959Z,1.60
2018-09-15T12:35:12.261Z,1.70
2018-09-15T12:37:41.157Z,1.80
2018-09-15T12:40:14.131Z,1.83
2018-09-15T12:42:43.331Z,2.30
2018-09-15T12:45:16.715Z,2.10
2018-09-15T12:47:45.653Z,1.73
2018-09-15T12:50:26.504Z,1.77
2018-09-15T12:52:55.692Z,2.13
2018-09-15T12:55:24.627Z,2.17
2018-09-15T12:57:53.574Z,1.90
2018-09-15T13:00:25.169Z,1.70
2018-09-15T13:02:53.631Z,1.90
2018-09-15T13:05:26.936Z,1.97
2018-09-15T13:07:55.867Z,1.73
2018-09-15T13:10:37.665Z,1.87
2018-09-15T13:13:06.529Z,2.30
2018-09-15T13:15:35.084Z,1.90
2018-09-15T13:18:03.996Z,1.30
2018-09-15T13:20:34.685Z,1.57
2018-09-15T13:23:03.624Z,1.20
2018-09-15T13:25:45.879Z,1.40
2018-09-15T13:28:15.260Z,1.63
2018-09-15T13:30:43.846Z,1.77
2018-09-15T13:33:12.756Z,2.07
2018-09-15T13:35:41.584Z,1.40
2018-09-15T13:38:10.144Z,1.30
2018-09-15T13:40:51.031Z,1.80
2018-09-15T13:43:19.810Z,1.53
2018-09-15T13:45:48.750Z,1.23
2018-09-15T13:48:17.657Z,1.47
2018-09-15T13:50:50.791Z,1.30
2018-09-15T13:53:19.793Z,1.50
2018-09-15T13:55:53.595Z,1.47
2018-09-15T13:58:22.803Z,1.23
2018-09-15T14:00:55.773Z,1.60
2018-09-15T14:03:24.804Z,1.40
2018-09-15T14:05:58.550Z,1.70
2018-09-15T14:08:27.488Z,1.50
2018-09-15T14:11:00.891Z,1.40
2018-09-15T14:13:30.144Z,1.30
2018-09-15T14:16:04.204Z,1.43
2018-09-15T14:18:33.153Z,1.70
2018-09-15T14:21:06.567Z,1.60
2018-09-15T14:23:35.327Z,1.50
2018-09-15T14:26:05.109Z,1.60
2018-09-15T14:28:34.064Z,1.40
2018-09-15T14:31:02.536Z,1.80
2018-09-15T14:33:31.433Z,1.93
2018-09-15T14:36:00.631Z,1.57
2018-09-15T14:38:29.213Z,1.40
2018-09-15T14:40:58.113Z,1.40
2018-09-15T14:43:27.507Z,1.70
2018-09-15T14:45:56.407Z,1.40
2018-09-15T14:48:25.370Z,1.70
2018-09-15T14:50:54.645Z,1.53
2018-09-15T14:53:27.178Z,1.50
2018-09-15T14:55:56.067Z,1.53
2018-09-15T14:58:28.800Z,1.40
2018-09-15T15:00:57.724Z,1.90
2018-09-15T15:03:29.888Z,1.30
2018-09-15T15:05:58.643Z,1.70
2018-09-15T15:08:32.509Z,2.30
2018-09-15T15:11:01.404Z,1.57
2018-09-15T15:13:34.681Z,1.60
2018-09-15T15:16:03.661Z,2.07
2018-09-15T15:18:38.394Z,1.80
2018-09-15T15:21:07.620Z,1.93
2018-09-15T15:23:41.268Z,9.20
2018-09-15T15:26:10.285Z,1.77
2018-09-15T15:28:43.489Z,1.63
2018-09-15T15:31:12.416Z,1.47
2018-09-15T15:33:45.805Z,1.57
2018-09-15T15:36:15.346Z,1.60
2018-09-15T15:38:47.795Z,1.87
2018-09-15T15:41:16.976Z,1.70
2018-09-15T15:43:50.278Z,1.40
2018-09-15T15:46:18.765Z,1.60
2018-09-15T15:48:47.973Z,1.60
2018-09-15T15:51:19.447Z,1.60
2018-09-15T15:53:48.139Z,1.73
2018-09-15T15:56:17.031Z,1.50
2018-09-15T15:58:45.674Z,1.60
2018-09-15T16:01:13.994Z,1.57
2018-09-15T16:03:42.473Z,1.80
2018-09-15T16:06:11.362Z,1.90
2018-09-15T16:08:39.851Z,1.63
2018-09-15T16:11:12.195Z,1.73
2018-09-15T16:13:41.426Z,1.53
2018-09-15T16:16:13.727Z,1.57
2018-09-15T16:18:42.652Z,1.73
2018-09-15T16:21:15.997Z,1.40
2018-09-15T16:23:44.491Z,1.70
2018-09-15T16:26:17.933Z,1.87
2018-09-15T16:28:46.819Z,1.60
2018-09-15T16:31:21.173Z,1.80
2018-09-15T16:33:50.061Z,1.73
2018-09-15T16:36:23.790Z,1.60
2018-09-15T16:38:52.704Z,1.63
2018-09-15T16:41:28.367Z,1.70
2018-09-15T16:43:58.139Z,1.40
2018-09-15T16:46:28.388Z,1.67
2018-09-15T16:48:57.324Z,1.70
2018-09-15T16:51:30.347Z,1.70
2018-09-15T16:53:58.836Z,1.70
2018-09-15T16:56:32.389Z,1.73
2018-09-15T16:59:01.315Z,1.53
2018-09-15T17:01:35.457Z,1.93
2018-09-15T17:04:03.916Z,1.80
2018-09-15T17:06:37.312Z,1.70
2018-09-15T17:09:07.567Z,1.93
2018-09-15T17:11:41.131Z,1.63
2018-09-15T17:14:10.611Z,1.60
2018-09-15T17:16:43.468Z,1.50
2018-09-15T17:19:12.289Z,1.80
2018-09-15T17:21:47.708Z,1.70
2018-09-15T17:24:16.615Z,1.93
2018-09-15T17:26:57.309Z,2.00
2018-09-15T17:29:26.509Z,2.03
2018-09-15T17:31:55.758Z,1.57
2018-09-15T17:34:24.875Z,1.70
2018-09-15T17:36:58.080Z,1.90
2018-09-15T17:39:26.969Z,1.90
2018-09-15T17:42:08.335Z,1.97
2018-09-15T17:44:37.676Z,2.10
2018-09-15T17:47:06.285Z,2.67
2018-09-15T17:49:35.207Z,2.60
2018-09-15T17:52:06.595Z,3.43
2018-09-15T17:54:35.542Z,2.30
2018-09-15T17:57:08.636Z,2.30
2018-09-15T17:59:37.584Z,3.10
2018-09-15T18:02:10.837Z,3.10
2018-09-15T18:04:39.916Z,2.77
2018-09-15T18:07:13.985Z,8.87
2018-09-15T18:09:45.952Z,7.63
2018-09-15T18:12:18.694Z,8.17
2018-09-15T18:14:48.098Z,8.60
2018-09-15T18:17:19.788Z,4.97
2018-09-15T18:19:48.247Z,4.00
2018-09-15T18:22:23.495Z,2.67
2018-09-15T18:24:52.408Z,2.30
2018-09-15T18:27:24.088Z,2.83
2018-09-15T18:29:52.844Z,3.33
2018-09-15T18:32:26.027Z,3.00
2018-09-15T18:34:54.502Z,3.77
2018-09-15T18:37:28.149Z,3.67
2018-09-15T18:39:56.626Z,3.17
2018-09-15T18:45:01.792Z,2.53
2018-09-15T18:47:34.843Z,2.17
2018-09-15T18:50:03.852Z,2.70
2018-09-15T18:52:38.016Z,2.90
2018-09-15T18:55:07.004Z,3.37
2018-09-15T18:57:40.067Z,3.20
2018-09-15T19:00:09.435Z,4.37
2018-09-15T19:02:42.993Z,5.90
2018-09-15T19:05:11.945Z,5.30
2018-09-15T19:07:49.696Z,4.80
2018-09-15T19:10:18.760Z,3.90
2018-09-15T19:12:49.363Z,3.90
2018-09-15T19:15:17.891Z,3.67
2018-09-15T19:17:52.339Z,3.33
2018-09-15T19:20:21.648Z,3.80
2018-09-15T19:22:55.067Z,4.20
2018-09-15T19:25:23.601Z,4.20
2018-09-15T19:28:00.127Z,4.73
2018-09-15T19:30:29.144Z,4.40
2018-09-15T19:33:03.915Z,4.53
2018-09-15T19:35:32.847Z,4.63
2018-09-15T19:38:04.817Z,4.53
2018-09-15T19:40:33.691Z,4.63
2018-09-15T19:43:07.943Z,4.83
2018-09-15T19:45:37.340Z,4.50
2018-09-15T19:48:09.962Z,4.43
2018-09-15T19:50:38.445Z,4.73
2018-09-15T19:53:13.863Z,4.90
2018-09-15T19:55:42.347Z,4.90
2018-09-15T19:58:15.295Z,4.30
2018-09-15T20:00:44.018Z,4.90
2018-09-15T20:03:19.016Z,4.43
2018-09-15T20:05:47.512Z,4.70
2018-09-15T20:08:21.307Z,5.23
2018-09-15T20:10:50.253Z,5.07
2018-09-15T20:13:24.717Z,5.17
2018-09-15T20:15:52.252Z,4.97
2018-09-15T20:18:24.633Z,5.00
2018-09-15T20:20:52.667Z,4.20
2018-09-15T20:23:25.085Z,5.00
2018-09-15T20:25:54.324Z,4.10
2018-09-15T20:28:23.896Z,3.83
2018-09-15T20:30:55.727Z,3.50
2018-09-15T20:33:24.176Z,3.33
2018-09-15T20:35:53.374Z,3.70
2018-09-15T20:38:22.317Z,3.73
2018-09-15T20:40:51.225Z,3.40
2018-09-15T20:43:20.423Z,3.43
2018-09-15T20:45:49.464Z,3.60
2018-09-15T20:48:18.360Z,3.03
2018-09-15T20:50:47.576Z,3.27
2018-09-15T20:53:16.046Z,3.73
2018-09-15T20:55:45.619Z,3.20
2018-09-15T20:58:14.384Z,3.10
2018-09-15T21:00:47.440Z,3.23
2018-09-15T21:03:16.652Z,3.43
2018-09-15T21:05:50.449Z,3.77
2018-09-15T21:08:18.925Z,3.17
2018-09-15T21:10:53.544Z,3.57
2018-09-15T21:13:24.018Z,3.23
2018-09-15T21:16:07.859Z,2.90
2018-09-15T21:18:36.677Z,3.57
2018-09-15T21:21:05.198Z,3.47
2018-09-15T21:23:33.986Z,3.43
2018-09-15T21:26:03.537Z,3.17
2018-09-15T21:28:32.018Z,3.27
2018-09-15T21:31:05.595Z,3.50
2018-09-15T21:33:34.476Z,3.37
2018-09-15T21:36:10.036Z,3.40
2018-09-15T21:38:38.830Z,3.50
2018-09-15T21:41:12.630Z,3.37
2018-09-15T21:43:41.100Z,3.43
2018-09-15T21:46:14.871Z,2.97
2018-09-15T21:48:43.808Z,3.20
2018-09-15T21:51:17.428Z,3.33
2018-09-15T21:53:46.220Z,3.53
2018-09-15T21:56:19.144Z,3.83
2018-09-15T21:58:48.216Z,3.20
2018-09-15T22:01:21.532Z,3.40
2018-09-15T22:03:55.309Z,3.47
2018-09-15T22:06:25.500Z,3.33
2018-09-15T22:08:53.951Z,3.43
2018-09-15T22:11:34.939Z,3.83
2018-09-15T22:14:04.150Z,2.97
2018-09-15T22:16:32.647Z,3.40
2018-09-15T22:19:01.579Z,3.87
2018-09-15T22:21:32.925Z,3.43
2018-09-15T22:24:01.398Z,3.57
2018-09-15T22:26:35.253Z,3.83
2018-09-15T22:29:05.016Z,3.80
2018-09-15T22:31:37.544Z,3.30
2018-09-15T22:34:06.558Z,3.40
2018-09-15T22:36:40.588Z,3.37
2018-09-15T22:39:09.865Z,3.30
2018-09-15T22:41:43.847Z,3.40
2018-09-15T22:44:13.028Z,3.63
2018-09-15T22:46:46.305Z,4.17
2018-09-15T22:49:14.775Z,3.60
2018-09-15T22:51:48.584Z,3.63
2018-09-15T22:54:17.499Z,4.27
2018-09-15T22:56:50.777Z,4.03
2018-09-15T22:59:19.982Z,3.17
2018-09-15T23:01:53.216Z,3.93
2018-09-15T23:04:22.127Z,4.20
2018-09-15T23:06:56.233Z,3.43
2018-09-15T23:09:25.155Z,3.57
2018-09-15T23:11:57.088Z,3.40
2018-09-15T23:14:26.728Z,3.30
2018-09-15T23:16:56.033Z,3.50
2018-09-15T23:19:24.483Z,3.60
2018-09-15T23:21:53.388Z,3.67
2018-09-15T23:24:22.544Z,3.43
2018-09-15T23:26:51.447Z,3.90
2018-09-15T23:29:19.987Z,3.23
2018-09-15T23:31:49.160Z,4.07
2018-09-15T23:34:18.100Z,3.60
2018-09-15T23:36:46.557Z,3.77
2018-09-15T23:39:18.412Z,3.90
2018-09-15T23:41:47.315Z,4.10
2018-09-15T23:44:19.253Z,4.67
2018-09-15T23:46:47.987Z,3.20
2018-09-15T23:49:21.912Z,3.70
2018-09-15T23:51:50.615Z,3.90
2018-09-15T23:54:31.939Z,3.90
2018-09-15T23:57:00.868Z,3.93
2018-09-15T23:59:29.624Z,3.57
